Time;durP1;ratioP1;P1;durP2;ratioP2;P2;SDS_P1;SDS_P2;PMS_P1;PMS_P2;Temp;Humidity;BMP_temperature;BMP_pressure;BME280_temperature;BME280_humidity;BME280_pressure;Samples;Min_cycle;Max_cycle;Signal;HPM_P1;HPM_P2
2021/04/01 00:00:39;;;;;;;51.70;29.42;;;281.70;2022.40;;;;;;5057415;28;20044;-85
2021/04/01 00:03:05;;;;;;;47.63;29.75;;;281.70;2022.40;;;;;;5056445;28;20039;-86
2021/04/01 00:05:32;;;;;;;42.83;25.60;;;281.70;2022.40;;;;;;5056341;28;20480;-85
2021/04/01 00:07:58;;;;;;;48.67;28.15;;;281.70;2022.40;;;;;;5056177;28;20120;-86
2021/04/01 00:10:31;;;;;;;47.25;28.75;;;281.70;2022.40;;;;;;5073327;28;20052;-86
2021/04/01 00:12:57;;;;;;;45.40;29.77;;;281.60;2022.40;;;;;;5060369;28;20135;-86
2021/04/01 00:15:23;;;;;;;57.45;34.63;;;281.70;1996.80;;;;;;5070793;28;20476;-86
2021/04/01 00:17:49;;;;;;;75.55;40.17;;;281.60;2048.00;;;;;;5080131;28;20111;-86
2021/04/01 00:20:17;;;;;;;58.83;30.45;;;256.80;2048.00;;;;;;5079761;28;20032;-85
2021/04/01 00:22:44;;;;;;;61.85;33.88;;;281.80;2073.60;;;;;;5079589;28;20028;-84
2021/04/01 00:25:13;;;;;;;42.95;28.45;;;256.80;2022.40;;;;;;5079972;28;20028;-85
2021/04/01 00:27:39;;;;;;;44.08;25.17;;;256.90;1996.80;;;;;;5079760;28;20028;-85
2021/04/01 00:30:07;;;;;;;37.40;25.17;;;256.80;2022.40;;;;;;5079938;28;20167;-85
2021/04/01 00:32:33;;;;;;;46.38;25.15;;;256.90;2022.40;;;;;;5079857;28;20066;-84
2021/04/01 00:34:59;;;;;;;47.13;24.95;;;256.80;2048.00;;;;;;5079598;28;20032;-86
2021/04/01 00:37:25;;;;;;;39.15;25.20;;;256.80;2048.00;;;;;;5079659;28;20082;-85
2021/04/01 00:39:50;;;;;;;39.90;23.33;;;256.70;2073.60;;;;;;5079334;28;20028;-85
2021/04/01 00:42:16;;;;;;;31.90;21.23;;;256.60;2073.60;;;;;;5079452;28;20035;-85
2021/04/01 00:44:44;;;;;;;34.58;21.55;;;256.60;2073.60;;;;;;5080012;28;20020;-85
2021/04/01 00:47:10;;;;;;;32.95;19.25;;;256.60;2073.60;;;;;;5079961;28;20024;-86
2021/04/01 00:49:37;;;;;;;26.40;17.70;;;256.70;2073.60;;;;;;5080190;28;20094;-86
2021/04/01 00:52:05;;;;;;;28.73;18.92;;;256.60;2073.60;;;;;;5097156;28;20028;-86
2021/04/01 00:54:32;;;;;;;40.90;24.40;;;256.70;2073.60;;;;;;5079076;28;20044;-86
2021/04/01 00:56:58;;;;;;;30.25;18.98;;;256.70;2048.00;;;;;;5079269;28;20476;-84
2021/04/01 00:59:25;;;;;;;43.55;25.67;;;256.60;2048.00;;;;;;5079588;28;20016;-87
2021/04/01 01:01:54;;;;;;;33.00;21.23;;;256.60;2048.00;;;;;;5079221;28;20094;-85
2021/04/01 01:04:20;;;;;;;29.02;20.10;;;256.70;2048.00;;;;;;5079996;28;20062;-86
2021/04/01 01:06:46;;;;;;;37.10;24.88;;;256.70;2022.40;;;;;;5079404;28;20403;-86
2021/04/01 01:09:12;;;;;;;33.17;21.80;;;256.70;2022.40;;;;;;5081081;28;20048;-87
2021/04/01 01:11:39;;;;;;;32.15;21.00;;;256.60;2073.60;;;;;;5082069;28;20058;-86
2021/04/01 01:14:07;;;;;;;32.33;20.23;;;256.50;2073.60;;;;;;5098576;28;20016;-86
2021/04/01 01:16:33;;;;;;;30.38;18.77;;;256.50;2073.60;;;;;;5097653;28;20024;-85
2021/04/01 01:19:01;;;;;;;31.20;19.75;;;256.40;2099.20;;;;;;5099398;28;20024;-86
2021/04/01 01:21:27;;;;;;;29.73;19.00;;;256.40;2099.20;;;;;;5080480;28;20040;-86
2021/04/01 01:23:53;;;;;;;29.73;19.17;;;256.40;2099.20;;;;;;5077869;28;20028;-86
2021/04/01 01:26:19;;;;;;;32.35;19.50;;;256.30;2099.20;;;;;;5078892;28;20031;-85
2021/04/01 01:28:46;;;;;;;38.53;23.65;;;256.30;2124.80;;;;;;5078537;28;20377;-86
2021/04/01 01:31:13;;;;;;;33.72;22.23;;;256.00;2176.00;;;;;;5096543;28;20080;-86
2021/04/01 01:33:43;;;;;;;47.85;28.73;;;256.00;2176.00;;;;;;5078756;28;20081;-87
2021/04/01 01:36:13;;;;;;;40.20;27.17;;;231.30;2201.60;;;;;;5062506;28;20028;-87
2021/04/01 01:38:39;;;;;;;40.67;27.80;;;231.20;2227.20;;;;;;5078923;28;20047;-87
2021/04/01 01:41:05;;;;;;;;;;;231.10;2227.20;;;;;;5077812;28;20062;-87
2021/04/01 01:43:32;;;;;;;47.72;26.17;;;231.20;2227.20;;;;;;5078717;28;20353;-87
2021/04/01 01:45:57;;;;;;;35.45;22.35;;;231.10;2252.80;;;;;;5080313;28;20498;-86
2021/04/01 01:48:24;;;;;;;47.83;31.10;;;231.10;2252.80;;;;;;5097228;28;20024;-85
2021/04/01 01:50:50;;;;;;;45.20;29.73;;;230.90;2252.80;;;;;;5078618;28;20020;-86
2021/04/01 01:53:15;;;;;;;34.83;22.67;;;231.10;2227.20;;;;;;5077988;28;20082;-86
2021/04/01 01:55:42;;;;;;;34.20;21.85;;;231.10;2227.20;;;;;;5077832;28;20028;-86
2021/04/01 01:58:08;;;;;;;50.30;30.75;;;231.20;2201.60;;;;;;5078702;28;20024;-86
2021/04/01 02:00:38;;;;;;;48.35;27.80;;;231.30;2150.40;;;;;;5077785;28;20039;-86
2021/04/01 02:03:05;;;;;;;50.13;29.55;;;256.00;2150.40;;;;;;5078122;28;20070;-86
2021/04/01 02:05:42;;;;;;;54.92;30.23;;;256.00;2124.80;;;;;;5077739;28;20046;-86
2021/04/01 02:08:17;;;;;;;51.22;30.50;;;256.00;2124.80;;;;;;5077861;28;20494;-86
2021/04/01 02:10:51;;;;;;;48.08;29.38;;;256.00;2124.80;;;;;;5078012;28;20114;-86
2021/04/01 02:13:23;;;;;;;47.75;28.75;;;231.30;2099.20;;;;;;5096263;28;20083;-86
2021/04/01 02:15:54;;;;;;;52.03;31.25;;;231.20;2124.80;;;;;;5078199;28;20017;-86
2021/04/01 02:18:28;;;;;;;42.30;26.73;;;231.30;2124.80;;;;;;5077916;28;20031;-86
2021/04/01 02:20:56;;;;;;;52.20;28.42;;;231.20;2150.40;;;;;;5078008;28;20036;-86
2021/04/01 02:23:25;;;;;;;44.00;25.65;;;231.20;2150.40;;;;;;5078017;28;20024;-86
2021/04/01 02:25:52;;;;;;;46.55;28.05;;;231.20;2150.40;;;;;;5077778;28;20036;-86
2021/04/01 02:28:21;;;;;;;48.17;29.77;;;231.30;2099.20;;;;;;5077777;28;20020;-86
2021/04/01 02:30:49;;;;;;;47.05;29.50;;;231.20;2150.40;;;;;;5077881;28;20055;-86
2021/04/01 02:33:30;;;;;;;46.53;28.10;;;231.20;2124.80;;;;;;5077735;28;20039;-86
2021/04/01 02:36:05;;;;;;;113.63;60.05;;;231.10;2176.00;;;;;;5077954;28;20020;-86
2021/04/01 02:38:31;;;;;;;75.35;43.58;;;231.00;2201.60;;;;;;5077706;28;20074;-86
2021/04/01 02:40:59;;;;;;;88.70;47.80;;;231.10;2227.20;;;;;;5077695;28;20495;-86
2021/04/01 02:46:06;;;;;;;83.82;46.70;;;230.90;2201.60;;;;;;5096090;28;20051;-86
2021/04/01 02:48:32;;;;;;;81.53;44.78;;;231.00;2227.20;;;;;;5095198;28;20024;-86
2021/04/01 02:50:58;;;;;;;79.97;44.85;;;230.90;2227.20;;;;;;5077450;28;20406;-86
2021/04/01 02:53:24;;;;;;;61.63;35.15;;;231.00;2201.60;;;;;;5077253;28;20028;-86
2021/04/01 02:55:50;;;;;;;54.80;32.45;;;230.90;2201.60;;;;;;5077902;28;20027;-86
2021/04/01 02:58:17;;;;;;;57.63;32.28;;;231.00;2201.60;;;;;;5077214;28;20016;-86
2021/04/01 03:00:43;;;;;;;51.88;30.17;;;231.00;2176.00;;;;;;5077671;28;20574;-86
2021/04/01 03:03:18;;;;;;;49.13;27.25;;;231.00;2201.60;;;;;;5076960;28;20047;-86
2021/04/01 03:05:44;;;;;;;33.40;22.63;;;230.90;2201.60;;;;;;5077559;28;20544;-86
2021/04/01 03:08:11;;;;;;;40.38;23.83;;;230.90;2176.00;;;;;;5076974;28;20020;-87
2021/04/01 03:10:37;;;;;;;60.60;37.15;;;230.80;2201.60;;;;;;5077315;28;20020;-85
2021/04/01 03:13:02;;;;;;;63.65;39.08;;;230.80;2201.60;;;;;;5077310;28;20024;-86
2021/04/01 03:15:29;;;;;;;56.92;34.63;;;230.80;2176.00;;;;;;5076505;28;20119;-86
2021/04/01 03:17:55;;;;;;;49.20;30.48;;;230.70;2227.20;;;;;;5077598;28;20024;-86
2021/04/01 03:20:21;;;;;;;44.60;27.75;;;230.70;2252.80;;;;;;5076641;28;20032;-86
2021/04/01 03:22:47;;;;;;;46.42;28.45;;;230.70;2252.80;;;;;;5077358;28;20030;-86
2021/04/01 03:25:13;;;;;;;45.30;28.60;;;230.60;2252.80;;;;;;5077620;28;20043;-86
2021/04/01 03:27:40;;;;;;;47.30;29.42;;;205.70;2252.80;;;;;;5077653;28;20027;-86
2021/04/01 03:30:13;;;;;;;49.85;29.40;;;205.70;2252.80;;;;;;5078387;28;20024;-87
2021/04/01 03:32:46;;;;;;;51.83;30.92;;;205.70;2252.80;;;;;;5084813;28;20048;-86
2021/04/01 03:35:23;;;;;;;60.22;33.83;;;205.70;2252.80;;;;;;5101018;28;20043;-85
2021/04/01 03:37:54;;;;;;;65.70;36.67;;;205.60;2252.80;;;;;;5100629;28;20029;-85
2021/04/01 03:40:20;;;;;;;63.55;34.83;;;205.70;2252.80;;;;;;5099508;28;20024;-86
2021/04/01 03:42:46;;;;;;;57.30;33.33;;;205.70;2252.80;;;;;;5081746;28;20028;-86
2021/04/01 03:45:15;;;;;;;51.35;29.52;;;205.70;2252.80;;;;;;5089399;28;20027;-86
2021/04/01 03:47:40;;;;;;;46.10;26.83;;;230.40;2252.80;;;;;;5085080;28;20020;-87
2021/04/01 03:50:08;;;;;;;46.45;27.08;;;230.40;2227.20;;;;;;5082173;28;20027;-87
2021/04/01 03:52:34;;;;;;;48.72;29.40;;;230.50;2227.20;;;;;;5082279;28;20020;-86
2021/04/01 03:55:07;;;;;;;54.33;29.33;;;230.50;2201.60;;;;;;5081781;28;20500;-86
2021/04/01 03:57:32;;;;;;;40.10;25.17;;;230.50;2227.20;;;;;;5082357;28;20043;-86
2021/04/01 04:00:07;;;;;;;42.63;22.15;;;230.50;2227.20;;;;;;5080900;28;20056;-87
2021/04/01 04:05:19;;;;;;;28.85;18.35;;;230.40;2252.80;;;;;;5103731;28;20065;-85
2021/04/01 04:15:14;;;;;;;29.40;20.73;;;230.40;2252.80;;;;;;5109748;28;20076;-87
2021/04/01 04:17:40;;;;;;;42.85;25.55;;;230.40;2227.20;;;;;;5110835;28;20103;-86
2021/04/01 04:20:07;;;;;;;36.65;20.42;;;230.50;2252.80;;;;;;5098961;28;20020;-86
2021/04/01 04:22:33;;;;;;;35.05;22.90;;;230.40;2227.20;;;;;;5104016;28;20019;-86
2021/04/01 04:25:00;;;;;;;70.45;36.97;;;230.40;2252.80;;;;;;5103151;28;20039;-86
2021/04/01 04:30:00;;;;;;;84.20;42.30;;;205.20;2252.80;;;;;;5100136;28;20032;-86
2021/04/01 04:32:35;;;;;;;63.38;33.53;;;205.00;2252.80;;;;;;5079521;28;20044;-87
2021/04/01 04:35:02;;;;;;;49.70;32.63;;;204.80;2252.80;;;;;;5075305;28;20031;-86
2021/04/01 04:37:28;;;;;;;56.75;33.75;;;180.10;2252.80;;;;;;5070928;28;20107;-86
2021/04/01 04:39:54;;;;;;;54.13;35.05;;;179.90;2252.80;;;;;;5071233;28;20461;-87
2021/04/01 04:42:19;;;;;;;55.33;33.70;;;179.80;2252.80;;;;;;5063787;28;20029;-87
2021/04/01 04:44:45;;;;;;;57.05;36.67;;;179.70;2252.80;;;;;;5067555;28;20035;-85
2021/04/01 04:47:11;;;;;;;68.10;37.08;;;179.70;2252.80;;;;;;5077352;28;20032;-85
2021/04/01 04:49:37;;;;;;;79.88;44.53;;;179.70;2252.80;;;;;;5059425;28;20472;-86
2021/04/01 04:52:03;;;;;;;71.93;43.72;;;179.70;2252.80;;;;;;5059533;28;20036;-87
2021/04/01 04:54:29;;;;;;;78.47;45.25;;;179.70;2252.80;;;;;;5064464;28;20058;-86
2021/04/01 04:56:58;;;;;;;76.30;44.65;;;179.70;2252.80;;;;;;5078930;28;20516;-86
2021/04/01 05:04:46;;;;;;;78.38;48.67;;;179.80;2252.80;;;;;;5097818;28;20080;-86
2021/04/01 05:07:12;;;;;;;89.10;53.38;;;179.80;2252.80;;;;;;5073109;28;20040;-86
2021/04/01 05:09:37;;;;;;;90.75;49.50;;;179.90;2252.80;;;;;;5061346;28;20032;-86
2021/04/01 05:12:04;;;;;;;93.32;52.15;;;179.90;2252.80;;;;;;5079384;28;20032;-86
2021/04/01 05:14:30;;;;;;;93.28;51.70;;;180.00;2252.80;;;;;;5059205;28;20086;-86
2021/04/01 05:16:55;;;;;;;89.85;51.50;;;204.80;2252.80;;;;;;5078172;28;20066;-86
2021/04/01 05:19:22;;;;;;;93.22;53.92;;;204.90;2252.80;;;;;;5078936;28;20028;-86
2021/04/01 05:24:18;;;;;;;76.70;45.45;;;205.10;2252.80;;;;;;5084243;28;20070;-87
2021/04/01 05:29:17;;;;;;;67.82;39.47;;;205.20;2252.80;;;;;;5076918;28;20052;-87
2021/04/01 05:31:42;;;;;;;74.90;39.92;;;205.30;2252.80;;;;;;5072197;28;20044;-87
2021/04/01 05:34:09;;;;;;;74.82;45.15;;;205.30;2252.80;;;;;;5098389;28;20051;-88
2021/04/01 05:36:43;;;;;;;76.00;42.15;;;205.30;2252.80;;;;;;5085866;28;20099;-87
2021/04/01 05:39:19;;;;;;;70.63;41.92;;;205.20;2252.80;;;;;;5099626;28;20004;-86
2021/04/01 05:41:50;;;;;;;82.47;44.53;;;205.20;2252.80;;;;;;5101909;28;20020;-87
2021/04/01 05:44:27;;;;;;;83.25;46.22;;;205.20;2252.80;;;;;;5099169;28;20054;-86
2021/04/01 05:47:00;;;;;;;78.78;50.72;;;205.30;2252.80;;;;;;5100661;28;20032;-87
2021/04/01 06:02:34;;;;;;;77.10;40.40;;;230.40;2252.80;;;;;;5107738;28;20054;-87
2021/04/01 06:05:09;;;;;;;74.47;41.35;;;230.50;2252.80;;;;;;5095046;28;20028;-86
2021/04/01 06:07:43;;;;;;;85.15;44.10;;;230.60;2252.80;;;;;;5095370;28;20036;-86
2021/04/01 06:10:10;;;;;;;71.20;40.53;;;230.80;2252.80;;;;;;5097451;28;20032;-87
2021/04/01 06:12:36;;;;;;;72.00;41.47;;;231.00;2252.80;;;;;;5098934;28;20021;-86
2021/04/01 06:15:07;;;;;;;68.13;40.30;;;231.10;2252.80;;;;;;5096397;28;20012;-87
2021/04/01 06:17:34;;;;;;;64.95;40.25;;;231.30;2252.80;;;;;;5088996;28;20054;-87
2021/04/01 06:20:06;;;;;;;65.57;38.85;;;256.00;2252.80;;;;;;5079755;28;20118;-87
2021/04/01 06:22:32;;;;;;;59.00;33.72;;;256.00;2252.80;;;;;;5079125;28;20139;-86
2021/04/01 06:24:57;;;;;;;50.30;32.63;;;256.10;2227.20;;;;;;5080220;28;20051;-87
2021/04/01 06:27:43;;;;;;;52.97;34.15;;;256.30;2201.60;;;;;;5081669;28;20035;-87
2021/04/01 06:32:41;;;;;;;58.85;37.70;;;256.50;2176.00;;;;;;5097280;28;20067;-86
2021/04/01 06:35:13;;;;;;;51.72;32.85;;;256.60;2176.00;;;;;;5077657;28;20020;-87
2021/04/01 06:40:44;;;;;;;64.38;38.15;;;281.60;2176.00;;;;;;5071712;28;20054;-86
2021/04/01 06:43:27;;;;;;;66.55;39.50;;;281.60;2150.40;;;;;;5077394;28;20035;-88
2021/04/01 06:45:57;;;;;;;68.95;39.13;;;281.60;2150.40;;;;;;5077434;28;20034;-85
2021/04/01 06:48:35;;;;;;;67.03;38.88;;;281.70;2176.00;;;;;;5077660;28;20024;-87
2021/04/01 06:51:10;;;;;;;61.17;38.58;;;281.80;2124.80;;;;;;5077407;28;20024;-88
2021/04/01 06:59:53;;;;;;;65.40;39.38;;;282.20;2099.20;;;;;;5095238;28;20039;-88
2021/04/01 07:04:40;;;;;;;68.13;38.85;;;307.30;2099.20;;;;;;5095136;28;20036;-87
2021/04/01 07:07:17;;;;;;;75.07;44.95;;;307.40;2073.60;;;;;;5077010;28;20091;-87
2021/04/01 07:12:27;;;;;;;80.35;53.58;;;307.40;2048.00;;;;;;5095526;28;20020;-88
2021/04/01 07:15:02;;;;;;;87.28;55.90;;;307.40;2073.60;;;;;;5080350;28;20036;-89
2021/04/01 07:17:46;;;;;;;86.82;50.03;;;307.60;2048.00;;;;;;5079705;28;20071;-86
2021/04/01 07:47:41;;;;;;;63.05;36.78;;;333.70;1971.20;;;;;;5094881;28;20394;-87
2021/04/01 07:50:22;;;;;;;58.35;37.83;;;358.60;1894.40;;;;;;5077264;28;20020;-88
2021/04/01 07:53:01;;;;;;;62.53;38.55;;;358.80;1894.40;;;;;;5076837;28;20037;-87
2021/04/01 08:06:20;;;;;;;55.15;34.88;;;384.10;1843.20;;;;;;5033145;28;20021;-86
2021/04/01 08:08:48;;;;;;;59.50;34.67;;;384.40;1792.00;;;;;;5016327;28;20033;-91
2021/04/01 08:11:28;;;;;;;55.65;31.80;;;384.80;1792.00;;;;;;5032826;28;20056;-90
2021/04/01 08:14:23;;;;;;;50.33;34.53;;;409.70;1817.60;;;;;;5034351;28;20496;-86
2021/04/01 08:16:53;;;;;;;48.90;33.03;;;410.00;1792.00;;;;;;5033465;28;20041;-88
2021/04/01 08:19:22;;;;;;;52.35;33.35;;;410.00;1715.20;;;;;;5032849;28;20017;-87
2021/04/01 08:21:53;;;;;;;51.45;33.17;;;410.20;1689.60;;;;;;5032064;28;20051;-83
2021/04/01 08:24:26;;;;;;;50.17;32.05;;;410.30;1715.20;;;;;;5034111;28;20069;-84
2021/04/01 08:35:36;;;;;;;46.65;29.35;;;435.50;1638.40;;;;;;4980308;28;20066;-90
2021/04/01 08:38:11;;;;;;;45.72;30.88;;;435.80;1612.80;;;;;;5000577;28;20065;-90
2021/04/01 08:40:49;;;;;;;49.38;31.90;;;435.90;1587.20;;;;;;4999581;28;20031;-90
2021/04/01 08:43:48;;;;;;;48.10;29.40;;;436.10;1561.60;;;;;;4997913;28;20019;-86
2021/04/01 08:46:33;;;;;;;50.75;30.42;;;461.00;1612.80;;;;;;4980733;28;20059;-88
2021/04/01 08:49:17;;;;;;;37.45;27.10;;;461.40;1612.80;;;;;;4981468;28;20023;-88
2021/04/01 08:51:53;;;;;;;41.63;26.85;;;461.70;1561.60;;;;;;4976206;28;20082;-87
2021/04/01 08:54:30;;;;;;;53.78;31.77;;;486.40;1561.60;;;;;;4971276;28;20020;-86
2021/04/01 08:57:06;;;;;;;39.95;27.55;;;486.80;1484.80;;;;;;4976392;28;20026;-85
2021/04/01 08:59:46;;;;;;;41.45;25.27;;;486.90;1510.40;;;;;;4980442;28;20054;-86
2021/04/01 09:02:14;;;;;;;31.83;22.95;;;486.90;1484.80;;;;;;4980830;28;20063;-88
2021/04/01 09:04:47;;;;;;;32.30;21.00;;;487.00;1510.40;;;;;;4980209;28;20024;-87
2021/04/01 09:07:17;;;;;;;26.17;19.35;;;487.20;1459.20;;;;;;4979460;29;20051;-85
2021/04/01 09:09:50;;;;;;;16.83;12.68;;;512.00;1459.20;;;;;;4978470;28;20035;-88
2021/04/01 09:12:26;;;;;;;8.80;7.43;;;512.10;1408.00;;;;;;5023274;28;20057;-89
2021/04/01 09:15:03;;;;;;;14.38;10.07;;;487.20;1459.20;;;;;;5001105;28;20037;-87
2021/04/01 09:17:34;;;;;;;25.70;12.05;;;487.20;1433.60;;;;;;5001060;28;20026;-87
2021/04/01 09:20:19;;;;;;;13.98;10.15;;;512.10;1433.60;;;;;;5000926;28;20030;-86
2021/04/01 09:22:50;;;;;;;17.42;11.63;;;487.20;1459.20;;;;;;5022158;28;20048;-87
2021/04/01 09:25:17;;;;;;;14.80;9.88;;;487.20;1433.60;;;;;;5079820;28;20058;-86
2021/04/01 09:27:52;;;;;;;18.13;9.95;;;487.30;1459.20;;;;;;5075064;28;20024;-85
2021/04/01 09:30:21;;;;;;;14.88;10.73;;;487.30;1433.60;;;;;;5078537;28;20020;-86
2021/04/01 09:32:50;;;;;;;18.55;11.15;;;512.20;1433.60;;;;;;5078418;28;20075;-93
2021/04/01 09:35:17;;;;;;;13.25;10.90;;;512.60;1408.00;;;;;;5078209;28;20028;-85
2021/04/01 09:38:03;;;;;;;10.68;8.65;;;512.60;1382.40;;;;;;5078009;28;20027;-83
2021/04/01 09:40:32;;;;;;;12.82;9.60;;;537.70;1382.40;;;;;;5077652;28;20105;-84
2021/04/01 09:43:08;;;;;;;13.35;9.32;;;538.10;1331.20;;;;;;5077155;28;20024;-85
2021/04/01 09:45:34;;;;;;;18.58;11.10;;;538.00;1382.40;;;;;;5076778;28;20039;-81
2021/04/01 09:48:02;;;;;;;12.55;9.45;;;538.10;1331.20;;;;;;5082921;28;20092;-83
2021/04/01 09:50:37;;;;;;;12.15;9.75;;;538.10;1331.20;;;;;;5082622;28;20109;-83
2021/04/01 09:53:12;;;;;;;14.48;10.88;;;538.20;1305.60;;;;;;5084928;28;20020;-83
2021/04/01 09:55:43;;;;;;;13.98;9.93;;;538.00;1356.80;;;;;;5082986;28;20040;-84
2021/04/01 09:58:30;;;;;;;13.50;10.68;;;512.80;1331.20;;;;;;5077230;28;20490;-84
2021/04/01 10:03:30;;;;;;;12.95;10.05;;;537.80;1331.20;;;;;;5095813;28;20371;-84
2021/04/01 10:05:56;;;;;;;;;;;537.70;1356.80;;;;;;5078045;28;20036;-86
2021/04/01 10:08:30;;;;;;;10.98;9.55;;;538.00;1356.80;;;;;;5077628;28;20331;-83
2021/04/01 10:11:02;;;;;;;13.65;9.77;;;537.60;1356.80;;;;;;5076822;28;20097;-83
2021/04/01 10:13:29;;;;;;;21.27;11.82;;;512.90;1331.20;;;;;;5077057;28;20028;-85
2021/04/01 10:15:57;;;;;;;10.10;8.45;;;537.80;1382.40;;;;;;5077083;28;20036;-88
2021/04/01 10:18:31;;;;;;;10.05;8.52;;;538.20;1305.60;;;;;;5077799;28;20024;-83
2021/04/01 10:21:08;;;;;;;11.18;8.27;;;563.30;1331.20;;;;;;5077479;28;20040;-84
2021/04/01 10:23:48;;;;;;;14.18;8.88;;;563.80;1305.60;;;;;;5080268;28;20032;-84
2021/04/01 10:26:16;;;;;;;9.10;8.07;;;563.80;1280.00;;;;;;5084221;28;20122;-84
2021/04/01 10:29:08;;;;;;;9.88;8.85;;;564.10;1228.80;;;;;;5097412;28;20028;-84
2021/04/01 10:31:45;;;;;;;14.25;9.55;;;563.80;1280.00;;;;;;5093049;28;20513;-83
2021/04/01 10:34:35;;;;;;;9.95;8.93;;;564.10;1228.80;;;;;;5087349;28;20034;-85
2021/04/01 10:37:06;;;;;;;11.77;9.70;;;589.10;1254.40;;;;;;5079306;28;20541;-83
2021/04/01 10:39:35;;;;;;;11.68;10.38;;;589.20;1228.80;;;;;;5079280;28;20028;-88
2021/04/01 10:42:03;;;;;;;11.73;9.65;;;589.10;1280.00;;;;;;5077110;28;20040;-83
2021/04/01 10:44:30;;;;;;;10.93;9.50;;;589.40;1203.20;;;;;;5095345;28;20099;-84
2021/04/01 10:47:01;;;;;;;12.85;9.82;;;589.20;1254.40;;;;;;5076756;28;20038;-83
2021/04/01 10:49:31;;;;;;;10.25;9.10;;;589.20;1177.60;;;;;;5076205;28;20056;-85
2021/04/01 10:52:18;;;;;;;11.82;8.95;;;589.50;1177.60;;;;;;5075495;28;20074;-86
2021/04/01 10:54:46;;;;;;;11.45;8.93;;;589.50;1203.20;;;;;;5093627;28;20085;-85
2021/04/01 10:57:32;;;;;;;12.48;9.50;;;589.30;1203.20;;;;;;5075325;28;20036;-85
2021/04/01 11:00:27;;;;;;;11.73;9.63;;;589.40;1152.00;;;;;;5076415;28;20024;-85
2021/04/01 11:03:00;;;;;;;11.20;9.65;;;589.30;1203.20;;;;;;4977011;28;20069;-84
2021/04/01 11:05:26;;;;;;;10.65;9.25;;;589.20;1228.80;;;;;;4977106;28;20023;-86
2021/04/01 11:08:06;;;;;;;14.93;9.13;;;589.60;1228.80;;;;;;4977429;28;20026;-87
2021/04/01 11:10:33;;;;;;;12.90;10.05;;;589.40;1177.60;;;;;;4975927;28;20030;-86
2021/04/01 11:13:03;;;;;;;10.75;9.65;;;589.60;1203.20;;;;;;4977126;28;20483;-87
2021/04/01 11:15:31;;;;;;;9.63;8.45;;;564.00;1152.00;;;;;;4993105;28;20023;-87
2021/04/01 11:18:20;;;;;;;10.05;8.63;;;564.00;1152.00;;;;;;4973739;28;20042;-87
2021/04/01 11:20:49;;;;;;;11.90;9.88;;;589.20;1100.80;;;;;;4970835;28;20057;-89
2021/04/01 11:23:19;;;;;;;12.27;8.68;;;614.50;1177.60;;;;;;4961172;28;20514;-87
2021/04/01 11:25:50;;;;;;;10.75;9.35;;;614.70;1126.40;;;;;;4972494;28;20434;-87
2021/04/01 11:28:17;;;;;;;10.50;8.68;;;589.10;1177.60;;;;;;4968857;28;20022;-88
2021/04/01 11:30:48;;;;;;;14.75;9.85;;;589.00;1126.40;;;;;;4976545;28;20022;-84
2021/04/01 11:33:16;;;;;;;14.05;12.05;;;589.30;1177.60;;;;;;4976869;28;20049;-88
2021/04/01 11:35:44;;;;;;;13.10;10.23;;;614.50;1152.00;;;;;;4977097;28;20030;-87
2021/04/01 11:38:22;;;;;;;19.02;11.20;;;614.70;1126.40;;;;;;4978938;28;20034;-85
2021/04/01 11:40:54;;;;;;;14.35;10.35;;;615.00;1152.00;;;;;;5075837;28;20040;-86
2021/04/01 11:43:29;;;;;;;13.87;8.87;;;614.90;1177.60;;;;;;5074893;28;20016;-88
2021/04/01 11:45:55;;;;;;;12.90;10.52;;;615.30;1126.40;;;;;;5060600;28;20123;-89
2021/04/01 11:48:21;;;;;;;11.90;10.43;;;640.20;1152.00;;;;;;5075379;28;20035;-88
2021/04/01 11:50:48;;;;;;;13.02;9.80;;;615.20;1075.20;;;;;;5076293;28;20047;-87
2021/04/01 11:53:16;;;;;;;13.20;9.52;;;640.20;1075.20;;;;;;5076058;28;20028;-87
2021/04/01 11:55:54;;;;;;;12.38;9.95;;;640.30;1075.20;;;;;;5076610;28;20039;-87
2021/04/01 11:58:23;;;;;;;15.10;9.63;;;640.40;1075.20;;;;;;5076727;28;20035;-85
2021/04/01 12:00:52;;;;;;;14.50;11.77;;;640.60;1075.20;;;;;;5076898;28;20117;-86
2021/04/01 12:03:31;;;;;;;14.55;10.13;;;665.60;1075.20;;;;;;5076310;28;20020;-86
2021/04/01 12:05:57;;;;;;;13.25;9.95;;;640.70;1075.20;;;;;;5076491;28;20127;-86
2021/04/01 12:08:23;;;;;;;13.43;9.63;;;665.80;1049.60;;;;;;5073900;28;20055;-86
2021/04/01 12:10:56;;;;;;;11.30;9.27;;;666.00;1075.20;;;;;;5079764;28;20379;-86
2021/04/01 12:13:24;;;;;;;11.40;10.07;;;666.30;1024.00;;;;;;5080236;28;20471;-87
2021/04/01 12:15:50;;;;;;;14.23;10.77;;;666.40;1049.60;;;;;;5081133;28;20396;-86
2021/04/01 12:18:17;;;;;;;11.60;9.63;;;666.20;1049.60;;;;;;5079929;28;20016;-87
2021/04/01 12:20:43;;;;;;;11.35;9.02;;;666.40;1024.00;;;;;;5080426;28;20028;-87
2021/04/01 12:23:12;;;;;;;11.00;9.05;;;665.90;998.40;;;;;;5080587;28;20067;-87
2021/04/01 12:25:39;;;;;;;12.85;9.80;;;666.10;998.40;;;;;;5081044;28;20456;-87
2021/04/01 12:28:05;;;;;;;12.70;9.23;;;666.40;998.40;;;;;;5081271;28;20024;-86
2021/04/01 12:30:37;;;;;;;12.18;9.27;;;666.50;998.40;;;;;;5082396;28;20072;-87
2021/04/01 12:33:19;;;;;;;10.27;9.17;;;666.10;998.40;;;;;;5103224;28;20087;-87
2021/04/01 12:35:50;;;;;;;11.23;10.13;;;666.10;998.40;;;;;;5103756;28;20295;-86
2021/04/01 12:38:32;;;;;;;10.38;8.15;;;666.30;998.40;;;;;;5103583;28;20009;-85
2021/04/01 12:41:00;;;;;;;14.23;9.20;;;666.10;998.40;;;;;;5102564;28;20051;-87
2021/04/01 12:43:40;;;;;;;11.57;9.23;;;640.30;972.80;;;;;;5102746;28;20013;-86
2021/04/01 12:46:07;;;;;;;12.05;10.82;;;614.80;1049.60;;;;;;5101503;28;20119;-85
2021/04/01 12:48:39;;;;;;;15.80;10.07;;;615.00;1049.60;;;;;;5098696;28;20024;-87
2021/04/01 12:51:06;;;;;;;15.18;10.48;;;640.10;1049.60;;;;;;5081818;28;20024;-87
2021/04/01 12:53:35;;;;;;;12.13;10.65;;;640.60;1049.60;;;;;;5083423;28;20071;-87
2021/04/01 12:56:09;;;;;;;15.70;10.00;;;665.60;1049.60;;;;;;5103814;28;20081;-87
2021/04/01 13:01:46;;;;;;;11.65;10.45;;;640.80;972.80;;;;;;5111416;28;20097;-87
2021/04/01 13:04:14;;;;;;;12.10;10.85;;;640.90;947.20;;;;;;5086990;28;20055;-85
2021/04/01 13:09:29;;;;;;;14.15;9.57;;;666.50;998.40;;;;;;5099711;28;20024;-83
2021/04/01 13:11:55;;;;;;;13.32;9.05;;;691.30;972.80;;;;;;5080150;28;20035;-85
2021/04/01 13:14:23;;;;;;;13.35;9.80;;;691.50;947.20;;;;;;5078752;28;20551;-84
2021/04/01 13:16:49;;;;;;;12.50;9.88;;;691.30;947.20;;;;;;5079496;28;20028;-86
2021/04/01 13:19:15;;;;;;;12.90;10.68;;;666.50;921.60;;;;;;5080159;28;20024;-85
2021/04/01 13:26:41;;;;;;;17.77;11.02;;;666.30;972.80;;;;;;5099529;28;20471;-85
2021/04/01 13:29:09;;;;;;;14.98;10.90;;;666.50;947.20;;;;;;5098320;28;20028;-85
2021/04/01 13:31:49;;;;;;;10.80;9.57;;;691.40;947.20;;;;;;5099244;28;20059;-85
2021/04/01 13:39:15;;;;;;;10.40;9.30;;;691.40;947.20;;;;;;5097242;28;20030;-85
2021/04/01 13:44:46;;;;;;;12.60;8.98;;;691.90;896.00;;;;;;4995823;28;20469;-86
2021/04/01 13:47:12;;;;;;;13.18;10.40;;;716.80;921.60;;;;;;4979523;28;20038;-86
2021/04/01 13:49:43;;;;;;;14.32;9.55;;;691.80;921.60;;;;;;4979616;28;20089;-86
2021/04/01 13:55:09;;;;;;;14.70;10.15;;;692.00;921.60;;;;;;5005816;28;20091;-85
2021/04/01 14:09:20;;;;;;;10.15;8.15;;;691.40;947.20;;;;;;4934129;29;20043;-85
2021/04/01 14:11:45;;;;;;;11.68;8.82;;;691.90;896.00;;;;;;4936806;29;20044;-84
2021/04/01 14:14:12;;;;;;;10.95;9.15;;;691.80;921.60;;;;;;4927735;29;20654;-84
2021/04/01 14:16:41;;;;;;;13.73;9.68;;;692.10;896.00;;;;;;4917749;28;20115;-86
2021/04/01 14:19:07;;;;;;;11.80;8.13;;;691.60;947.20;;;;;;4917495;29;20058;-84
2021/04/01 14:21:33;;;;;;;17.65;8.82;;;691.80;921.60;;;;;;4950195;28;20038;-85
2021/04/01 14:24:08;;;;;;;14.75;8.95;;;716.80;921.60;;;;;;4978435;28;20034;-85
2021/04/01 14:26:47;;;;;;;16.80;9.43;;;692.10;844.80;;;;;;4978239;28;20038;-83
2021/04/01 14:29:13;;;;;;;26.50;10.02;;;717.30;896.00;;;;;;4977837;28;20022;-84
2021/04/01 14:31:39;;;;;;;10.75;8.50;;;717.40;870.40;;;;;;4987566;28;20127;-84
2021/04/01 14:34:05;;;;;;;10.98;8.07;;;717.40;844.80;;;;;;4958021;28;20027;-86
2021/04/01 14:36:32;;;;;;;13.70;11.23;;;717.30;844.80;;;;;;4986980;28;20028;-84